Time;durP1;ratioP1;P1;durP2;ratioP2;P2;SDS_P1;SDS_P2;PMS_P1;PMS_P2;Temp;Humidity;BMP_temperature;BMP_pressure;BME280_temperature;BME280_humidity;BME280_pressure;Samples;Min_cycle;Max_cycle;Signal;HPM_P1;HPM_P2
2024/01/26 00:01:22;;;;;;;20.05;11.30;;;10.00;99.90;;;;;;4882694;29;20049;-78
2024/01/26 00:03:51;;;;;;;21.70;10.75;;;10.00;99.90;;;;;;4868297;29;20151;-78
2024/01/26 00:06:18;;;;;;;18.02;10.27;;;10.00;99.90;;;;;;4899265;29;20053;-79
2024/01/26 00:08:45;;;;;;;19.73;10.48;;;10.00;99.90;;;;;;4883326;29;20052;-78
2024/01/26 00:11:16;;;;;;;19.38;11.00;;;10.00;99.90;;;;;;4883537;29;20135;-78
2024/01/26 00:13:43;;;;;;;17.55;9.73;;;10.00;99.90;;;;;;4898941;29;20053;-79
2024/01/26 00:16:11;;;;;;;22.90;12.38;;;10.00;99.90;;;;;;4885753;29;20043;-78
2024/01/26 00:18:40;;;;;;;17.92;10.57;;;10.00;99.90;;;;;;4883269;29;20413;-78
2024/01/26 00:21:07;;;;;;;20.38;11.13;;;10.00;99.90;;;;;;4898718;29;20045;-78
2024/01/26 00:23:35;;;;;;;14.90;9.05;;;10.00;99.90;;;;;;4898819;29;20049;-79
2024/01/26 00:26:02;;;;;;;19.05;10.38;;;10.00;99.90;;;;;;4898752;29;20059;-78
2024/01/26 00:28:30;;;;;;;18.80;10.65;;;10.00;99.90;;;;;;4883336;29;20062;-78
2024/01/26 00:30:57;;;;;;;13.52;8.48;;;10.00;99.90;;;;;;4880168;29;20390;-79
2024/01/26 00:33:24;;;;;;;15.65;9.88;;;10.00;99.90;;;;;;4896690;29;20040;-78
2024/01/26 00:35:52;;;;;;;16.08;8.90;;;10.00;99.90;;;;;;4881177;29;20516;-79
2024/01/26 00:38:19;;;;;;;15.32;7.95;;;10.00;99.90;;;;;;4898570;29;20048;-79
2024/01/26 00:40:46;;;;;;;20.73;11.75;;;10.00;99.90;;;;;;4898301;29;20063;-78
2024/01/26 00:43:13;;;;;;;21.75;12.73;;;10.00;99.90;;;;;;4880181;29;20533;-78
2024/01/26 00:45:40;;;;;;;20.77;10.75;;;10.00;99.90;;;;;;4879787;29;20045;-78
2024/01/26 00:48:07;;;;;;;18.20;11.07;;;10.00;99.90;;;;;;4876240;29;20147;-78
2024/01/26 00:50:34;;;;;;;18.27;10.50;;;10.00;99.90;;;;;;4898209;29;20055;-78
2024/01/26 00:53:03;;;;;;;17.00;9.55;;;10.00;99.90;;;;;;4898218;29;20461;-78
2024/01/26 00:55:31;;;;;;;15.43;9.10;;;10.00;99.90;;;;;;4897980;29;20068;-78
2024/01/26 00:57:59;;;;;;;19.95;10.00;;;10.00;99.90;;;;;;4860985;29;20143;-78
2024/01/26 01:00:26;;;;;;;20.50;12.20;;;10.00;99.90;;;;;;4894629;29;20485;-78
2024/01/26 01:02:53;;;;;;;21.30;12.00;;;10.00;99.90;;;;;;4879722;29;20509;-78
2024/01/26 01:05:20;;;;;;;18.67;12.10;;;10.00;99.90;;;;;;4862363;29;20498;-78
2024/01/26 01:07:48;;;;;;;17.08;10.50;;;10.10;99.90;;;;;;4866913;29;20052;-78
2024/01/26 01:10:16;;;;;;;17.30;10.30;;;10.10;99.90;;;;;;4882422;29;20135;-78
2024/01/26 01:12:43;;;;;;;16.85;10.07;;;10.10;99.90;;;;;;4897843;29;20037;-78
2024/01/26 01:15:13;;;;;;;16.33;10.50;;;10.10;99.90;;;;;;4897862;29;20100;-78
2024/01/26 01:17:45;;;;;;;18.60;10.63;;;10.10;99.90;;;;;;4897810;29;20040;-78
2024/01/26 01:20:13;;;;;;;18.70;11.15;;;10.10;99.90;;;;;;4897970;29;20505;-78
2024/01/26 01:22:44;;;;;;;20.40;12.73;;;10.10;99.90;;;;;;4897871;29;20060;-79
2024/01/26 01:25:14;;;;;;;23.08;14.93;;;10.10;99.90;;;;;;4863948;29;20100;-79
2024/01/26 01:27:41;;;;;;;19.95;12.35;;;10.10;99.90;;;;;;4895114;29;20048;-79
2024/01/26 01:30:11;;;;;;;20.00;12.20;;;10.10;99.90;;;;;;4898841;29;20454;-78
2024/01/26 01:32:38;;;;;;;17.30;10.80;;;10.10;99.90;;;;;;4879454;29;20052;-78
2024/01/26 01:35:06;;;;;;;18.42;11.18;;;10.10;99.90;;;;;;4864811;29;20135;-78
2024/01/26 01:37:33;;;;;;;16.42;10.27;;;10.10;99.90;;;;;;4897424;29;20500;-78
2024/01/26 01:40:01;;;;;;;18.10;11.05;;;10.10;99.90;;;;;;4897482;29;20059;-78
2024/01/26 01:42:28;;;;;;;16.63;10.93;;;10.10;99.90;;;;;;4881887;29;20075;-78
2024/01/26 01:44:55;;;;;;;21.17;12.80;;;10.10;99.90;;;;;;4881826;29;20053;-78
2024/01/26 01:47:22;;;;;;;22.13;12.98;;;10.10;99.90;;;;;;4897308;29;20080;-78
2024/01/26 01:49:50;;;;;;;19.45;11.82;;;10.10;99.90;;;;;;4898457;29;20044;-78
2024/01/26 01:52:18;;;;;;;17.48;11.60;;;10.10;99.90;;;;;;4881342;29;20122;-77
2024/01/26 01:54:49;;;;;;;21.75;13.27;;;10.20;99.90;;;;;;4896912;29;20096;-77
2024/01/26 01:57:19;;;;;;;24.38;14.05;;;10.20;99.90;;;;;;4896910;29;20052;-78
2024/01/26 01:59:46;;;;;;;21.02;12.52;;;10.20;99.90;;;;;;4896964;29;20044;-78
2024/01/26 02:02:13;;;;;;;17.38;11.35;;;10.20;99.90;;;;;;4881455;29;20076;-78
2024/01/26 02:04:40;;;;;;;18.55;11.55;;;10.20;99.90;;;;;;4881603;29;20431;-78
2024/01/26 02:07:07;;;;;;;15.75;9.95;;;10.20;99.90;;;;;;4896851;29;20044;-78
2024/01/26 02:09:34;;;;;;;13.60;9.18;;;10.20;99.90;;;;;;4898026;29;20040;-79
2024/01/26 02:12:01;;;;;;;17.27;10.85;;;10.20;99.90;;;;;;4896859;29;20036;-78
2024/01/26 02:14:28;;;;;;;16.02;9.52;;;10.20;99.90;;;;;;4881321;29;20068;-78
2024/01/26 02:16:57;;;;;;;17.27;10.82;;;10.20;99.90;;;;;;4881186;29;20048;-78
2024/01/26 02:19:25;;;;;;;19.17;11.32;;;10.20;99.90;;;;;;4898249;29;20041;-78
2024/01/26 02:21:53;;;;;;;17.20;11.18;;;10.20;99.90;;;;;;4896704;29;20530;-78
2024/01/26 02:24:20;;;;;;;14.90;9.68;;;10.20;99.90;;;;;;4897346;29;20048;-78
2024/01/26 02:26:47;;;;;;;14.73;9.88;;;10.20;99.90;;;;;;4897843;29;20045;-79
2024/01/26 02:29:14;;;;;;;12.02;7.68;;;10.20;99.90;;;;;;4881146;29;20049;-78
2024/01/26 02:31:41;;;;;;;11.38;6.97;;;10.20;99.90;;;;;;4897800;29;20096;-78
2024/01/26 02:34:12;;;;;;;12.27;7.78;;;10.20;99.90;;;;;;4878093;29;20077;-78
2024/01/26 02:36:39;;;;;;;11.38;6.68;;;10.20;99.90;;;;;;4877551;29;20049;-78
2024/01/26 02:39:06;;;;;;;11.55;7.05;;;10.20;99.90;;;;;;4880940;29;20451;-78
2024/01/26 02:41:37;;;;;;;13.88;8.93;;;10.20;99.90;;;;;;4896359;29;20084;-78
2024/01/26 02:44:04;;;;;;;12.15;7.57;;;10.20;99.90;;;;;;4881017;29;20057;-78
2024/01/26 02:46:33;;;;;;;14.75;8.93;;;10.20;99.90;;;;;;4897538;29;20139;-78
2024/01/26 02:49:01;;;;;;;12.00;7.55;;;10.20;99.90;;;;;;4865563;29;20056;-78
2024/01/26 02:51:29;;;;;;;11.85;6.75;;;10.20;99.90;;;;;;4896439;29;20048;-78
2024/01/26 02:53:56;;;;;;;11.63;7.53;;;10.20;99.90;;;;;;4896326;29;20051;-78
2024/01/26 02:56:23;;;;;;;11.23;6.65;;;10.20;99.90;;;;;;4880871;29;20083;-78
2024/01/26 02:58:50;;;;;;;13.30;8.50;;;10.20;99.90;;;;;;4880531;29;20173;-78
2024/01/26 03:01:17;;;;;;;11.75;7.15;;;10.20;99.90;;;;;;4896338;29;20044;-78
2024/01/26 03:03:44;;;;;;;10.95;7.53;;;10.20;99.90;;;;;;4880822;29;20056;-78
2024/01/26 03:06:14;;;;;;;13.68;7.30;;;10.20;99.90;;;;;;4897511;29;20433;-78
2024/01/26 03:08:41;;;;;;;10.88;6.45;;;10.20;99.90;;;;;;4897439;29;20044;-78
2024/01/26 03:11:11;;;;;;;12.88;7.80;;;10.20;99.90;;;;;;4896293;29;20032;-78
2024/01/26 03:13:39;;;;;;;11.65;7.22;;;10.20;99.90;;;;;;4896331;29;20044;-78
2024/01/26 03:16:06;;;;;;;11.25;7.35;;;10.20;99.90;;;;;;4896176;29;20036;-78
2024/01/26 03:18:33;;;;;;;11.88;7.43;;;10.20;99.90;;;;;;4880726;29;20561;-78
2024/01/26 03:21:01;;;;;;;12.88;6.53;;;10.20;99.90;;;;;;4896239;29;20056;-78
2024/01/26 03:23:28;;;;;;;11.35;6.45;;;10.30;99.90;;;;;;4897398;29;20394;-78
2024/01/26 03:25:55;;;;;;;9.30;5.82;;;10.30;99.90;;;;;;4880512;29;20052;-78
2024/01/26 03:28:22;;;;;;;8.30;5.40;;;10.30;99.90;;;;;;4880563;29;20503;-77
2024/01/26 03:30:49;;;;;;;6.97;4.93;;;10.30;99.90;;;;;;4898710;29;20053;-77
2024/01/26 03:33:17;;;;;;;9.18;5.07;;;10.30;99.90;;;;;;4880494;29;20462;-77
2024/01/26 03:35:45;;;;;;;8.80;4.97;;;10.30;99.90;;;;;;4898862;29;20045;-77
2024/01/26 03:38:12;;;;;;;7.65;4.38;;;10.30;99.90;;;;;;4899593;29;20073;-78
2024/01/26 03:40:39;;;;;;;7.07;4.20;;;10.30;99.90;;;;;;4883969;29;20049;-78
2024/01/26 03:43:06;;;;;;;8.05;5.50;;;10.30;99.90;;;;;;4880836;29;20053;-77
2024/01/26 03:45:33;;;;;;;8.18;5.55;;;10.30;99.90;;;;;;4900388;29;20135;-77
2024/01/26 03:48:01;;;;;;;7.05;4.25;;;10.30;99.90;;;;;;4883745;29;20040;-77
2024/01/26 03:50:28;;;;;;;7.57;4.10;;;10.40;99.90;;;;;;4900404;29;20044;-78
2024/01/26 03:52:55;;;;;;;8.63;4.30;;;10.40;99.90;;;;;;4868342;29;20049;-77
2024/01/26 03:55:22;;;;;;;8.73;4.40;;;10.40;99.90;;;;;;4883765;29;20096;-78
2024/01/26 03:57:49;;;;;;;8.43;4.82;;;10.40;99.90;;;;;;4883426;29;20061;-78
2024/01/26 04:00:16;;;;;;;6.50;4.00;;;10.40;99.90;;;;;;4881226;29;20049;-78
2024/01/26 04:02:43;;;;;;;8.27;4.95;;;10.50;99.90;;;;;;4883449;29;20045;-78
2024/01/26 04:05:10;;;;;;;8.98;4.95;;;10.40;99.90;;;;;;4898942;29;20131;-77
2024/01/26 04:07:37;;;;;;;9.45;4.68;;;10.50;99.90;;;;;;4900016;29;20052;-77
2024/01/26 04:10:08;;;;;;;8.77;5.65;;;10.50;99.90;;;;;;4880238;29;20053;-78
2024/01/26 04:12:35;;;;;;;10.20;5.22;;;10.50;99.90;;;;;;4897512;29;20079;-77
2024/01/26 04:15:02;;;;;;;7.65;4.45;;;10.50;99.90;;;;;;4883294;29;20470;-77
2024/01/26 04:17:29;;;;;;;8.30;4.88;;;10.50;99.90;;;;;;4883349;29;20100;-77
2024/01/26 04:19:56;;;;;;;7.85;4.40;;;10.50;99.90;;;;;;4883151;29;20050;-78
2024/01/26 04:22:23;;;;;;;7.82;4.78;;;10.50;99.90;;;;;;4852600;29;20128;-78
2024/01/26 04:24:50;;;;;;;7.35;4.75;;;10.50;99.90;;;;;;4883133;29;20052;-77
2024/01/26 04:27:18;;;;;;;7.20;4.10;;;10.50;99.90;;;;;;4899644;29;20048;-77
2024/01/26 04:29:45;;;;;;;5.40;3.33;;;10.60;99.90;;;;;;4898605;29;20120;-77
2024/01/26 04:32:12;;;;;;;7.53;3.83;;;10.60;99.90;;;;;;4898838;29;20048;-78
2024/01/26 04:34:40;;;;;;;5.55;3.33;;;10.50;99.90;;;;;;4898438;29;20049;-77
2024/01/26 04:37:08;;;;;;;5.63;3.60;;;10.60;99.90;;;;;;4899759;29;20068;-77
2024/01/26 04:39:34;;;;;;;7.53;3.83;;;10.60;99.90;;;;;;4898429;29;20056;-78
2024/01/26 04:42:02;;;;;;;5.97;3.75;;;10.60;99.90;;;;;;4883138;29;20131;-78
2024/01/26 04:44:29;;;;;;;6.30;3.35;;;10.60;99.90;;;;;;4898396;29;20054;-78
2024/01/26 04:46:59;;;;;;;5.93;3.80;;;10.60;99.90;;;;;;4882752;29;20076;-77
2024/01/26 04:49:26;;;;;;;7.90;4.22;;;10.60;99.90;;;;;;4898316;29;20047;-77
2024/01/26 04:51:53;;;;;;;6.25;4.13;;;10.60;99.90;;;;;;4882706;29;20055;-78
2024/01/26 04:54:20;;;;;;;6.45;3.92;;;10.60;99.90;;;;;;4899420;29;20155;-77
2024/01/26 04:56:47;;;;;;;6.25;3.92;;;10.60;99.90;;;;;;4882559;29;20417;-77
2024/01/26 04:59:14;;;;;;;7.75;4.07;;;10.60;99.90;;;;;;4882503;29;20055;-78
2024/01/26 05:01:41;;;;;;;7.03;3.85;;;10.70;99.90;;;;;;4863885;29;20129;-77
2024/01/26 05:04:08;;;;;;;9.43;4.38;;;10.70;99.90;;;;;;4881281;29;20506;-77
2024/01/26 05:06:35;;;;;;;6.10;3.70;;;10.70;99.90;;;;;;4882393;29;20052;-78
2024/01/26 05:09:02;;;;;;;7.35;4.20;;;10.70;99.90;;;;;;4882338;29;20143;-78
2024/01/26 05:11:29;;;;;;;6.68;3.78;;;10.70;99.90;;;;;;4897790;29;20040;-77
2024/01/26 05:13:56;;;;;;;10.48;4.20;;;10.70;99.90;;;;;;4897677;29;20040;-78
2024/01/26 05:16:24;;;;;;;7.85;4.13;;;10.70;99.90;;;;;;4898836;29;20040;-78
2024/01/26 05:18:51;;;;;;;7.40;3.80;;;10.70;99.90;;;;;;4882341;29;20104;-77
2024/01/26 05:21:20;;;;;;;6.82;3.65;;;10.70;99.90;;;;;;4882386;29;20048;-77
2024/01/26 05:23:50;;;;;;;7.35;4.40;;;10.70;99.90;;;;;;4882515;29;20049;-77
2024/01/26 05:26:18;;;;;;;8.18;4.93;;;10.70;99.90;;;;;;4897700;29;20037;-78
2024/01/26 05:28:45;;;;;;;8.77;5.55;;;10.70;99.90;;;;;;4897554;29;20105;-78
2024/01/26 05:31:12;;;;;;;8.98;4.97;;;10.70;99.90;;;;;;4881999;29;20052;-78
2024/01/26 05:33:39;;;;;;;7.25;4.60;;;10.70;99.90;;;;;;4898754;29;20055;-78
2024/01/26 05:36:07;;;;;;;11.13;4.78;;;10.60;99.90;;;;;;4882000;29;20041;-78
2024/01/26 05:38:34;;;;;;;6.78;4.28;;;10.60;99.90;;;;;;4878819;29;20114;-78
2024/01/26 05:41:01;;;;;;;9.02;5.07;;;10.70;99.90;;;;;;4869901;29;20091;-78
2024/01/26 05:43:28;;;;;;;7.18;4.78;;;10.70;99.90;;;;;;4878698;29;20096;-77
2024/01/26 05:45:55;;;;;;;8.25;4.82;;;10.60;99.90;;;;;;4898235;29;20055;-77
2024/01/26 05:48:22;;;;;;;5.95;3.88;;;10.70;99.90;;;;;;4881816;29;20433;-78
2024/01/26 05:50:49;;;;;;;7.35;4.70;;;10.70;99.90;;;;;;4896970;29;20179;-77
2024/01/26 05:53:16;;;;;;;6.90;4.60;;;10.70;99.90;;;;;;4878552;29;20084;-77
2024/01/26 05:55:43;;;;;;;8.50;6.20;;;10.70;99.90;;;;;;4881522;29;20509;-77
2024/01/26 05:58:10;;;;;;;9.10;6.03;;;10.70;99.90;;;;;;4896172;29;20140;-77
2024/01/26 06:00:37;;;;;;;8.63;5.45;;;10.70;99.90;;;;;;4866113;29;20143;-77
2024/01/26 06:03:04;;;;;;;8.35;5.38;;;10.70;99.90;;;;;;4881510;29;20147;-78
2024/01/26 06:05:31;;;;;;;9.60;6.38;;;10.70;99.90;;;;;;4896927;29;20051;-77
2024/01/26 06:07:59;;;;;;;11.00;6.35;;;10.70;99.90;;;;;;4881537;29;20045;-77
2024/01/26 06:10:26;;;;;;;11.23;6.85;;;10.70;99.90;;;;;;4878842;29;20049;-77
2024/01/26 06:12:53;;;;;;;13.30;8.00;;;10.70;99.90;;;;;;4896944;29;20041;-78
2024/01/26 06:15:20;;;;;;;12.27;7.68;;;10.60;99.90;;;;;;4881855;29;20486;-78
2024/01/26 06:17:47;;;;;;;12.25;7.70;;;10.60;99.90;;;;;;4896733;29;20588;-77
2024/01/26 06:20:15;;;;;;;11.25;7.63;;;10.60;99.90;;;;;;4889006;29;20127;-78
2024/01/26 06:22:42;;;;;;;11.20;7.78;;;10.50;99.90;;;;;;4881418;29;20143;-78
2024/01/26 06:25:09;;;;;;;13.15;8.05;;;10.60;99.90;;;;;;4896822;29;20100;-78
2024/01/26 06:27:37;;;;;;;12.40;8.48;;;10.50;99.90;;;;;;4881171;29;20045;-78
2024/01/26 06:30:05;;;;;;;11.63;7.10;;;10.50;99.90;;;;;;4896843;29;20037;-79
2024/01/26 06:32:32;;;;;;;15.77;8.00;;;10.50;99.90;;;;;;4881208;29;20112;-81
2024/01/26 06:34:59;;;;;;;10.05;7.38;;;10.50;99.90;;;;;;4881157;29;20052;-80
2024/01/26 06:37:26;;;;;;;10.60;6.63;;;10.50;99.90;;;;;;4862536;29;20053;-82
2024/01/26 06:39:55;;;;;;;10.43;6.68;;;10.50;99.90;;;;;;4876652;29;20060;-81
2024/01/26 06:42:25;;;;;;;11.82;7.05;;;10.50;99.90;;;;;;4866000;29;20052;-82
2024/01/26 06:44:55;;;;;;;10.80;6.50;;;10.40;99.90;;;;;;4863240;29;20045;-82
2024/01/26 06:47:22;;;;;;;10.27;5.95;;;10.40;99.90;;;;;;4877793;29;20383;-80
2024/01/26 06:49:49;;;;;;;11.18;6.85;;;10.40;99.90;;;;;;4889793;29;20127;-80
2024/01/26 06:52:16;;;;;;;10.27;6.47;;;10.40;99.90;;;;;;4877885;29;20103;-81
2024/01/26 06:54:43;;;;;;;8.80;6.30;;;10.40;99.90;;;;;;4888385;29;20053;-80
2024/01/26 06:57:10;;;;;;;7.50;5.18;;;10.40;99.90;;;;;;4896323;29;20123;-78
2024/01/26 06:59:38;;;;;;;7.47;4.90;;;10.40;99.90;;;;;;4896144;29;20045;-77
2024/01/26 07:02:05;;;;;;;7.72;5.55;;;10.40;99.90;;;;;;4896266;29;20055;-79
2024/01/26 07:04:32;;;;;;;7.68;5.10;;;10.40;99.90;;;;;;4880991;29;20048;-79
2024/01/26 07:06:59;;;;;;;8.77;5.88;;;10.40;99.90;;;;;;4896546;29;20064;-80
2024/01/26 07:09:27;;;;;;;7.55;5.32;;;10.40;99.90;;;;;;4881632;29;20049;-79
2024/01/26 07:11:54;;;;;;;8.82;5.85;;;10.40;99.90;;;;;;4884413;29;20056;-78
2024/01/26 07:14:22;;;;;;;9.50;5.90;;;10.40;99.90;;;;;;4881372;29;20406;-78
2024/01/26 07:16:49;;;;;;;7.25;5.10;;;10.40;99.90;;;;;;4884479;29;20048;-78
2024/01/26 07:19:16;;;;;;;8.05;5.15;;;10.40;99.90;;;;;;4899868;29;20434;-79
2024/01/26 07:21:44;;;;;;;8.50;5.53;;;10.50;99.90;;;;;;4884526;29;20463;-78
2024/01/26 07:24:11;;;;;;;9.10;5.15;;;10.40;99.90;;;;;;4899763;29;20060;-79
2024/01/26 07:26:38;;;;;;;7.43;4.82;;;10.50;99.90;;;;;;4899845;29;20493;-78
2024/01/26 07:29:05;;;;;;;8.65;5.10;;;10.50;99.90;;;;;;4884426;29;20060;-79
2024/01/26 07:31:32;;;;;;;8.45;5.13;;;10.50;99.90;;;;;;4883988;29;20072;-78
2024/01/26 07:34:00;;;;;;;6.85;5.03;;;10.50;99.90;;;;;;4899715;29;20401;-78
2024/01/26 07:36:27;;;;;;;10.68;5.90;;;10.50;99.90;;;;;;4899734;29;20045;-78
2024/01/26 07:38:54;;;;;;;8.52;5.10;;;10.50;99.90;;;;;;4881091;29;20466;-79
2024/01/26 07:41:21;;;;;;;10.30;6.20;;;10.50;99.90;;;;;;4874625;29;20083;-79
2024/01/26 07:43:48;;;;;;;10.77;6.18;;;10.50;99.90;;;;;;4890804;29;20044;-78
2024/01/26 07:46:15;;;;;;;8.63;5.93;;;10.50;99.90;;;;;;4883681;29;20482;-79
2024/01/26 07:48:42;;;;;;;9.73;6.60;;;10.50;99.90;;;;;;4883932;29;20045;-79
2024/01/26 07:51:09;;;;;;;9.18;5.72;;;10.60;99.90;;;;;;4865177;29;20379;-79
2024/01/26 07:53:36;;;;;;;8.25;5.38;;;10.60;99.90;;;;;;4878946;29;20469;-79
2024/01/26 07:56:04;;;;;;;9.45;5.93;;;10.60;99.90;;;;;;4883849;29;20045;-79
2024/01/26 07:58:33;;;;;;;11.50;6.50;;;10.60;99.90;;;;;;4899182;29;20054;-78
2024/01/26 08:01:00;;;;;;;8.60;6.00;;;10.60;99.90;;;;;;4883697;29;20051;-78
2024/01/26 08:03:29;;;;;;;8.90;5.93;;;10.60;99.90;;;;;;4883635;29;20048;-78
2024/01/26 08:05:57;;;;;;;10.52;7.40;;;10.70;99.90;;;;;;4900270;29;20040;-78
2024/01/26 08:08:24;;;;;;;12.32;7.72;;;10.60;99.90;;;;;;4900289;29;20044;-78
2024/01/26 08:10:51;;;;;;;11.82;8.23;;;10.70;99.90;;;;;;4883433;29;20437;-79
2024/01/26 08:13:18;;;;;;;10.90;7.18;;;10.70;99.90;;;;;;4880475;29;20517;-79
2024/01/26 08:15:46;;;;;;;12.43;8.70;;;10.70;99.90;;;;;;4867353;29;20120;-81
2024/01/26 08:18:14;;;;;;;15.15;9.23;;;10.70;99.90;;;;;;4883500;29;20045;-82
2024/01/26 08:20:41;;;;;;;11.85;8.40;;;10.80;99.90;;;;;;4898388;29;20397;-81
2024/01/26 08:23:08;;;;;;;14.15;8.75;;;10.80;99.90;;;;;;4883143;29;20063;-80
2024/01/26 08:25:35;;;;;;;13.77;9.25;;;10.80;99.90;;;;;;4880120;29;20080;-80
2024/01/26 08:28:02;;;;;;;14.27;10.18;;;10.80;99.90;;;;;;4881367;29;20049;-78
2024/01/26 08:30:29;;;;;;;14.30;9.75;;;10.80;99.90;;;;;;4898662;29;20053;-79
2024/01/26 08:32:57;;;;;;;16.70;10.30;;;10.80;99.90;;;;;;4883164;29;20040;-79
2024/01/26 08:35:24;;;;;;;15.27;10.20;;;10.80;99.90;;;;;;4898611;29;20072;-78
2024/01/26 08:37:51;;;;;;;15.77;11.00;;;10.90;99.90;;;;;;4867754;29;20489;-78
2024/01/26 08:40:20;;;;;;;15.60;10.60;;;10.90;99.90;;;;;;4899793;29;20048;-78
2024/01/26 08:42:47;;;;;;;14.60;10.32;;;10.90;99.90;;;;;;4898373;29;20057;-78
2024/01/26 08:45:14;;;;;;;17.83;12.00;;;11.00;99.90;;;;;;4882506;29;20053;-78
2024/01/26 08:47:41;;;;;;;15.48;10.73;;;11.00;99.90;;;;;;4882833;29;20115;-77
2024/01/26 08:50:09;;;;;;;16.88;10.45;;;11.00;99.90;;;;;;4882678;29;20466;-78
2024/01/26 08:52:36;;;;;;;18.02;12.75;;;11.00;99.90;;;;;;4899272;29;20047;-77
2024/01/26 08:55:04;;;;;;;16.00;11.32;;;11.00;99.90;;;;;;4882657;29;20119;-78
2024/01/26 08:57:31;;;;;;;15.45;11.02;;;11.10;99.90;;;;;;4882728;29;20072;-78
2024/01/26 09:00:00;;;;;;;15.57;11.35;;;11.10;99.90;;;;;;4897868;29;20060;-77
2024/01/26 09:02:28;;;;;;;13.77;10.23;;;11.10;99.90;;;;;;4882658;29;20112;-78
2024/01/26 09:04:55;;;;;;;17.58;11.95;;;11.10;99.90;;;;;;4867358;29;20132;-78
2024/01/26 09:07:23;;;;;;;16.13;12.10;;;11.10;99.90;;;;;;4882536;29;20049;-77
2024/01/26 09:09:50;;;;;;;15.43;10.25;;;11.10;99.90;;;;;;4867238;29;20601;-78
2024/01/26 09:12:17;;;;;;;18.60;12.23;;;11.10;99.90;;;;;;4882293;29;20084;-77
2024/01/26 09:14:44;;;;;;;16.05;10.93;;;11.10;99.90;;;;;;4898109;29;20055;-78
2024/01/26 09:17:11;;;;;;;14.43;9.90;;;11.10;99.90;;;;;;4897739;29;20517;-80
2024/01/26 09:19:38;;;;;;;13.70;8.65;;;11.10;99.90;;;;;;4897734;29;20074;-78
2024/01/26 09:22:08;;;;;;;11.63;7.38;;;11.10;99.90;;;;;;4882312;29;20056;-78
2024/01/26 09:24:35;;;;;;;11.52;6.90;;;11.10;99.90;;;;;;4882541;29;20076;-85
2024/01/26 09:27:02;;;;;;;11.45;6.30;;;11.10;99.90;;;;;;4882372;29;20570;-82
2024/01/26 09:29:30;;;;;;;12.18;6.35;;;11.10;99.90;;;;;;4882373;29;20040;-82
2024/01/26 09:31:58;;;;;;;11.32;6.55;;;11.10;99.90;;;;;;4882099;29;20489;-83
2024/01/26 09:34:27;;;;;;;9.75;5.35;;;11.10;99.90;;;;;;4867283;29;20048;-84
2024/01/26 09:36:54;;;;;;;9.23;4.28;;;11.00;99.90;;;;;;4896708;29;20100;-83
2024/01/26 09:39:24;;;;;;;8.52;3.13;;;11.00;99.90;;;;;;4898537;29;20044;-84
2024/01/26 09:41:51;;;;;;;6.00;1.58;;;11.00;99.90;;;;;;4896183;29;20045;-83
2024/01/26 09:44:18;;;;;;;4.13;1.10;;;10.80;99.90;;;;;;4882006;29;20068;-83
2024/01/26 09:46:45;;;;;;;5.05;1.23;;;10.70;99.90;;;;;;4897324;29;20071;-81
2024/01/26 09:49:13;;;;;;;5.55;1.20;;;10.60;99.90;;;;;;4878559;29;20044;-81
2024/01/26 09:51:40;;;;;;;7.72;1.15;;;10.50;99.90;;;;;;4892763;29;20073;-81
2024/01/26 09:54:08;;;;;;;4.28;0.88;;;10.40;99.90;;;;;;4897190;29;20072;-81
2024/01/26 09:56:39;;;;;;;5.60;0.77;;;10.40;99.90;;;;;;4881771;29;20056;-81
2024/01/26 09:59:08;;;;;;;4.05;0.68;;;10.30;99.90;;;;;;4866214;29;20139;-81
2024/01/26 10:01:36;;;;;;;3.20;0.30;;;10.00;99.90;;;;;;4866514;29;20056;-84
2024/01/26 10:04:03;;;;;;;2.03;0.60;;;9.60;99.90;;;;;;4896943;29;20055;-88
2024/01/26 10:06:31;;;;;;;2.05;0.40;;;9.20;99.90;;;;;;4881850;29;20052;-82
2024/01/26 10:08:58;;;;;;;1.95;0.45;;;9.00;99.90;;;;;;4881316;29;20055;-83
2024/01/26 10:11:25;;;;;;;3.10;0.40;;;8.90;99.90;;;;;;4881321;29;20049;-83
2024/01/26 10:13:52;;;;;;;3.78;0.30;;;8.80;99.90;;;;;;4865917;29;20117;-82
2024/01/26 10:16:19;;;;;;;2.45;0.50;;;8.80;99.90;;;;;;4881293;29;20443;-82
2024/01/26 10:18:48;;;;;;;2.20;0.40;;;8.70;99.90;;;;;;4881320;29;20047;-83
2024/01/26 10:21:16;;;;;;;5.97;0.57;;;8.70;99.90;;;;;;4881683;29;20108;-80
2024/01/26 10:23:44;;;;;;;5.38;0.88;;;8.80;99.90;;;;;;4862729;29;20057;-80
2024/01/26 10:26:12;;;;;;;6.40;0.68;;;8.80;99.90;;;;;;4895202;29;20143;-80
2024/01/26 10:28:40;;;;;;;3.63;0.22;;;8.80;99.90;;;;;;4881504;29;20507;-84
2024/01/26 10:31:07;;;;;;;2.05;0.30;;;8.80;99.90;;;;;;4878136;29;20494;-82
2024/01/26 10:33:40;;;;;;;5.57;0.47;;;8.80;99.90;;;;;;4896220;29;20071;-84
2024/01/26 10:36:09;;;;;;;3.55;0.38;;;8.90;99.90;;;;;;4881620;29;20040;-81
2024/01/26 10:38:38;;;;;;;4.28;0.40;;;8.90;99.90;;;;;;4896387;29;20044;-81
2024/01/26 10:41:06;;;;;;;4.20;0.45;;;8.90;99.90;;;;;;4896625;29;20100;-80
2024/01/26 10:43:35;;;;;;;4.40;0.60;;;9.00;99.90;;;;;;4880920;29;20100;-81
2024/01/26 10:46:03;;;;;;;6.78;0.82;;;9.00;99.90;;;;;;4896197;29;20033;-81
2024/01/26 10:48:31;;;;;;;7.20;0.93;;;9.00;99.90;;;;;;4896249;29;20052;-81
2024/01/26 10:51:00;;;;;;;3.83;0.60;;;9.00;99.90;;;;;;4896422;29;20045;-81
2024/01/26 10:53:27;;;;;;;4.47;0.50;;;9.00;99.90;;;;;;4880802;29;20589;-81
2024/01/26 10:55:56;;;;;;;3.47;0.57;;;9.00;99.90;;;;;;4896731;29;20076;-81
2024/01/26 10:58:23;;;;;;;5.85;0.60;;;9.00;99.90;;;;;;4896558;29;20191;-81
2024/01/26 11:00:50;;;;;;;6.05;0.68;;;9.10;99.90;;;;;;4877754;29;20124;-84
2024/01/26 11:03:19;;;;;;;9.38;0.88;;;9.20;99.90;;;;;;4888745;29;20045;-81
2024/01/26 11:05:53;;;;;;;7.25;0.98;;;9.20;99.90;;;;;;4897554;29;20049;-82
2024/01/26 11:08:24;;;;;;;11.23;0.63;;;9.20;99.90;;;;;;4862770;29;20148;-84
2024/01/26 11:10:53;;;;;;;8.02;0.85;;;9.20;99.90;;;;;;4894735;29;20086;-83
2024/01/26 11:13:22;;;;;;;6.18;0.80;;;9.20;99.90;;;;;;4896101;29;20105;-80
2024/01/26 11:15:51;;;;;;;3.85;0.70;;;9.30;99.90;;;;;;4896200;29;20388;-80
2024/01/26 11:18:26;;;;;;;6.38;0.80;;;9.30;99.90;;;;;;4897389;29;20512;-82
2024/01/26 11:20:54;;;;;;;5.53;0.88;;;9.40;99.90;;;;;;4864840;29;20052;-82
2024/01/26 11:23:21;;;;;;;4.90;0.77;;;9.40;99.90;;;;;;4896037;29;20056;-82
2024/01/26 11:25:53;;;;;;;6.35;0.90;;;9.50;99.90;;;;;;4878497;29;20060;-81
2024/01/26 11:28:27;;;;;;;9.25;2.25;;;9.50;99.90;;;;;;4896101;29;20414;-80
2024/01/26 11:30:59;;;;;;;6.93;0.82;;;9.50;99.90;;;;;;4897086;29;20074;-80
2024/01/26 11:33:39;;;;;;;4.70;0.90;;;9.50;99.90;;;;;;4896093;29;20493;-80
2024/01/26 11:36:11;;;;;;;7.57;1.38;;;9.60;99.90;;;;;;4895883;29;20062;-80
2024/01/26 11:38:40;;;;;;;9.18;0.75;;;9.60;99.90;;;;;;4881117;29;20052;-81
2024/01/26 11:41:10;;;;;;;6.93;0.82;;;9.60;99.90;;;;;;4877205;29;20045;-80
2024/01/26 11:43:44;;;;;;;7.20;0.75;;;9.60;98.30;;;;;;4865739;29;20084;-82
2024/01/26 11:46:12;;;;;;;7.95;0.98;;;9.60;98.00;;;;;;4897333;29;20056;-82
2024/01/26 11:48:40;;;;;;;7.85;0.95;;;9.60;96.90;;;;;;4895737;29;20059;-81
2024/01/26 11:51:08;;;;;;;3.00;0.50;;;9.60;96.90;;;;;;4880217;29;20553;-82
2024/01/26 11:53:35;;;;;;;4.80;0.68;;;9.60;97.20;;;;;;4880076;29;20047;-82
2024/01/26 11:56:04;;;;;;;5.07;0.75;;;9.70;95.90;;;;;;4880620;29;20049;-82
2024/01/26 11:58:32;;;;;;;8.65;0.93;;;9.70;96.00;;;;;;4899199;29;20048;-81
2024/01/26 12:01:05;;;;;;;11.50;0.77;;;9.70;96.40;;;;;;4899040;29;20045;-82
2024/01/26 12:03:32;;;;;;;9.73;1.02;;;9.70;95.60;;;;;;4883755;29;20057;-82
2024/01/26 12:06:01;;;;;;;6.57;1.35;;;9.70;95.40;;;;;;4901845;29;20918;-81
2024/01/26 12:08:28;;;;;;;6.55;0.93;;;9.70;95.00;;;;;;4883516;29;20048;-82
2024/01/26 12:10:56;;;;;;;4.22;0.73;;;9.70;94.60;;;;;;4880193;29;20126;-81
2024/01/26 12:13:23;;;;;;;8.52;0.90;;;9.70;94.20;;;;;;4890325;29;20486;-80
2024/01/26 12:15:50;;;;;;;7.35;1.77;;;9.60;94.20;;;;;;4883106;29;20056;-80
2024/01/26 12:18:18;;;;;;;7.18;0.80;;;9.60;93.90;;;;;;4883063;29;20395;-80
2024/01/26 12:20:50;;;;;;;6.43;1.33;;;9.60;94.20;;;;;;4883159;29;20048;-76
2024/01/26 12:23:18;;;;;;;;;;;9.70;93.50;;;;;;4898915;29;20049;-76
2024/01/26 12:25:49;;;;;;;4.78;0.68;;;9.70;92.20;;;;;;4900029;29;19931;-77
2024/01/26 12:28:17;;;;;;;8.57;1.60;;;9.70;93.20;;;;;;4898650;29;20059;-77
2024/01/26 12:30:47;;;;;;;8.30;1.17;;;9.70;91.30;;;;;;4898667;29;20482;-77
2024/01/26 12:33:14;;;;;;;6.47;1.17;;;9.70;91.10;;;;;;4898502;29;20041;-78
2024/01/26 12:35:42;;;;;;;6.03;0.80;;;9.60;91.80;;;;;;4899552;29;20051;-78
2024/01/26 12:38:10;;;;;;;6.43;0.70;;;9.70;92.30;;;;;;4898237;29;20055;-77
2024/01/26 12:40:37;;;;;;;5.57;0.90;;;9.60;92.40;;;;;;4882843;29;20489;-77
2024/01/26 12:43:05;;;;;;;7.15;0.93;;;9.60;92.50;;;;;;4883022;29;20499;-77
2024/01/26 12:45:32;;;;;;;8.52;1.05;;;9.60;91.70;;;;;;4882688;29;20048;-74